Gazi — 9HA2542 — position and weather

sailwx.info

Track history (hours):
 
Tides and Currents Weather Stations Pressure Air Temp Water Temp Dewpoint Dewpoint Depression Visibility Wind Speed Wind Dir Waves Ship Positions

Gazi

Last reported at 2015-Jan-25 21:27 UTC. Time now 2015-Jan-29 22:27 UTC.
Position N 34°30' E 035°33'.

Length 146 m; draft 9.3 m.

Type: Ship. MMSI: 248841000.

Date/timePositionNaut miles runAvg speedWind from/ knotsBaromVisibWave heightAir tempDewpointWater temp
2015-Jan-25 21:27N 34°30' E 035°33'8810.9
2015-Jan-25 13:21N 34°31' E 033°46'810.7
2015-Jan-25 12:33N 34°31' E 033°36'1110.7
2015-Jan-25 11:33N 34°31' E 033°23'1110.7
2015-Jan-25 10:33N 34°30' E 033°10'1010.5
2015-Jan-25 09:33N 34°30' E 032°57'1110.9
2015-Jan-25 08:33N 34°34' E 032°44'1110.7
2015-Jan-25 07:33N 34°37' E 032°32'1110.5
2015-Jan-25 06:32N 34°40' E 032°19'31910.3
2015-Jan-23 23:26N 36°20' E 026°08'910.6
2015-Jan-23 22:33N 36°24' E 025°57'1110.9
2015-Jan-23 21:33N 36°28' E 025°45'1111.1
2015-Jan-23 20:33N 36°32' E 025°32'4210.0
2015-Jan-23 16:22N 36°59' E 024°52'91 9.8
2015-Jan-23 07:04N 38°21' E 024°01'2 0.1
2015-Jan-22 17:18N 38°22' E 024°03'  
2015-Jan-19 13:13N 38°01' E 024°09'912.4
2015-Jan-19 12:28N 37°52' E 024°10'1411.7
2015-Jan-19 11:16N 37°38' E 024°09'1011.3
2015-Jan-19 10:23N 37°37' E 023°56'911.5
2015-Jan-19 09:33N 37°39' E 023°44'1110.7
2015-Jan-19 08:33N 37°48' E 023°37'7 7.1
2015-Jan-19 07:33N 37°54' E 023°32'0 0.0
2015-Jan-19 06:33N 37°54' E 023°32'0 0.0
2015-Jan-19 05:33N 37°54' E 023°32'0 0.0
2015-Jan-19 04:33N 37°54' E 023°32'0 0.0
2015-Jan-19 03:33N 37°54' E 023°32'0 0.0
2015-Jan-19 02:33N 37°54' E 023°32'0 0.0
2015-Jan-19 01:33N 37°54' E 023°32'0 0.1
2015-Jan-19 00:33N 37°54' E 023°32'0 0.1
2015-Jan-18 23:33N 37°54' E 023°32'0 0.1
2015-Jan-18 22:33N 37°54' E 023°32'0 0.0
2015-Jan-18 21:33N 37°54' E 023°32'0 0.0
2015-Jan-18 20:33N 37°54' E 023°32'0 0.1
2015-Jan-18 19:33N 37°54' E 023°32'4 4.4
2015-Jan-18 18:33N 37°52' E 023°37'1010.2
2015-Jan-18 17:34N 37°43' E 023°44'6211.9
2015-Jan-18 12:23N 37°04' E 024°44'2612.2
2015-Jan-18 10:14N 36°46' E 025°08'912.2
2015-Jan-18 09:29N 36°40' E 025°16'1111.9
2015-Jan-18 08:33N 36°34' E 025°28'1212.3
2015-Jan-18 07:33N 36°29' E 025°42'1312.7
2015-Jan-18 06:34N 36°24' E 025°56'27912.4
2015-Jan-17 08:04N 34°55' E 031°22'6511.9
2015-Jan-17 02:33N 34°36' E 032°38'1212.2
2015-Jan-17 01:33N 34°32' E 032°52'1211.8
2015-Jan-17 00:34N 34°30' E 033°06'1211.8
2015-Jan-16 23:32N 34°29' E 033°21'  
Track history (hours):
 
Tides and Currents Weather Stations Pressure Air Temp Water Temp Dewpoint Dewpoint Depression Visibility Wind Speed Wind Dir Waves Ship Positions

Gazi

Last reported at 2015-Jan-25 21:27 UTC. Time now 2015-Jan-29 22:27 UTC.
Position N 34°30' E 035°33'.

Length 146 m; draft 9.3 m.

Type: Ship. MMSI: 248841000.

Date/timePositionNaut miles runAvg speedWind from/ knotsBaromVisibWave heightAir tempDewpointWater temp
2015-Jan-25 21:27N 34°30' E 035°33'8810.9
2015-Jan-25 13:21N 34°31' E 033°46'810.7
2015-Jan-25 12:33N 34°31' E 033°36'1110.7
2015-Jan-25 11:33N 34°31' E 033°23'1110.7
2015-Jan-25 10:33N 34°30' E 033°10'1010.5
2015-Jan-25 09:33N 34°30' E 032°57'1110.9
2015-Jan-25 08:33N 34°34' E 032°44'1110.7
2015-Jan-25 07:33N 34°37' E 032°32'1110.5
2015-Jan-25 06:32N 34°40' E 032°19'31910.3
2015-Jan-23 23:26N 36°20' E 026°08'910.6
2015-Jan-23 22:33N 36°24' E 025°57'1110.9
2015-Jan-23 21:33N 36°28' E 025°45'1111.1
2015-Jan-23 20:33N 36°32' E 025°32'4210.0
2015-Jan-23 16:22N 36°59' E 024°52'91 9.8
2015-Jan-23 07:04N 38°21' E 024°01'2 0.1
2015-Jan-22 17:18N 38°22' E 024°03'  
2015-Jan-19 13:13N 38°01' E 024°09'912.4
2015-Jan-19 12:28N 37°52' E 024°10'1411.7
2015-Jan-19 11:16N 37°38' E 024°09'1011.3
2015-Jan-19 10:23N 37°37' E 023°56'911.5
2015-Jan-19 09:33N 37°39' E 023°44'1110.7
2015-Jan-19 08:33N 37°48' E 023°37'7 7.1
2015-Jan-19 07:33N 37°54' E 023°32'0 0.0
2015-Jan-19 06:33N 37°54' E 023°32'0 0.0
2015-Jan-19 05:33N 37°54' E 023°32'0 0.0
2015-Jan-19 04:33N 37°54' E 023°32'0 0.0
2015-Jan-19 03:33N 37°54' E 023°32'0 0.0
2015-Jan-19 02:33N 37°54' E 023°32'0 0.0
2015-Jan-19 01:33N 37°54' E 023°32'0 0.1
2015-Jan-19 00:33N 37°54' E 023°32'0 0.1
2015-Jan-18 23:33N 37°54' E 023°32'0 0.1
2015-Jan-18 22:33N 37°54' E 023°32'0 0.0
2015-Jan-18 21:33N 37°54' E 023°32'0 0.0
2015-Jan-18 20:33N 37°54' E 023°32'0 0.1
2015-Jan-18 19:33N 37°54' E 023°32'4 4.4
2015-Jan-18 18:33N 37°52' E 023°37'1010.2
2015-Jan-18 17:34N 37°43' E 023°44'6211.9
2015-Jan-18 12:23N 37°04' E 024°44'2612.2
2015-Jan-18 10:14N 36°46' E 025°08'912.2
2015-Jan-18 09:29N 36°40' E 025°16'1111.9
2015-Jan-18 08:33N 36°34' E 025°28'1212.3
2015-Jan-18 07:33N 36°29' E 025°42'1312.7
2015-Jan-18 06:34N 36°24' E 025°56'27912.4
2015-Jan-17 08:04N 34°55' E 031°22'6511.9
2015-Jan-17 02:33N 34°36' E 032°38'1212.2
2015-Jan-17 01:33N 34°32' E 032°52'1211.8
2015-Jan-17 00:34N 34°30' E 033°06'1211.8
2015-Jan-16 23:32N 34°29' E 033°21'  

Dump ship's entire track history